Dades meteomassalio
Diari Summary for Febrer 7, 2017 Units:  English    Metric   Both
« Previous Day
Next Day »
Diari Semanal Mensual Anual Personalitzat
  Maxima: Minima: Mijana:
Temperatura: TemperatureF °F 46.9 °F 54.1 °F
Rosada: DewpointF °F 41.7 °F 45.4 °F
Humitat: Humidity % 63 % 72 %
Velocitat del vent: WindSpeedMPH mph 0.0 mph 16.3 mph
Racha vent: WindSpeedGustMPH mph - -
Vent:- - WNW
Pressio: PressureIn in 30.08 in -
Pluja: 0.09 in    
Historical Graphs
 
 
Tabular Data for Febrer 7, 2017
Time Temperature Dew Point Pressure Wind Wind Speed Wind Gust Humidity Rainfall Rate (Hourly) solar Conditions
TemperatureF °F DewpointF °F PressureIn in Calm     Humidity % HourlyPrecipIn in SolarRadiationWatts/m^2 W/m2 Conditions
00:00 56.0 °F 45.2 °F 30.18 in WNW 13.8 mph 13.8 mph 67 % 0.00 in 0.0 W/m2 CLR
00:05 56.1 °F 45.3 °F 30.18 in WNW 15.0 mph 15.0 mph 67 % 0.00 in 0.0 W/m2 CLR
00:10 56.0 °F 45.2 °F 30.18 in WNW 19.6 mph 19.6 mph 67 % 0.00 in 0.0 W/m2 CLR
00:15 55.9 °F 45.1 °F 30.17 in WNW 18.4 mph 18.4 mph 67 % 0.00 in 0.0 W/m2 CLR
00:20 55.9 °F 45.5 °F 30.18 in WNW 26.5 mph 26.5 mph 68 % 0.00 in 0.0 W/m2 CLR
00:25 55.9 °F 45.1 °F 30.18 in WNW 19.6 mph 19.6 mph 67 % 0.00 in 0.0 W/m2 CLR
00:30 55.7 °F 45.3 °F 30.17 in WNW 19.6 mph 19.6 mph 68 % 0.00 in 0.0 W/m2 CLR
00:35 55.6 °F 45.2 °F 30.17 in WNW 20.7 mph 20.7 mph 68 % 0.00 in 0.0 W/m2 CLR
00:40 55.7 °F 45.3 °F 30.17 in WNW 23.0 mph 23.0 mph 68 % 0.00 in 0.0 W/m2 CLR
00:45 55.6 °F 45.2 °F 30.17 in WNW 19.6 mph 19.6 mph 68 % 0.00 in 0.0 W/m2 CLR
00:50 55.7 °F 44.9 °F 30.17 in WNW 25.3 mph 25.3 mph 67 % 0.00 in 0.0 W/m2 CLR
00:55 55.6 °F 45.2 °F 30.17 in WNW 21.9 mph 21.9 mph 68 % 0.00 in 0.0 W/m2 CLR
01:00 55.5 °F 44.7 °F 30.17 in WNW 19.6 mph 19.6 mph 67 % 0.00 in 0.0 W/m2 CLR
01:05 55.3 °F 44.9 °F 30.17 in WNW 18.4 mph 18.4 mph 68 % 0.00 in 0.0 W/m2 CLR
01:10 55.3 °F 44.9 °F 30.17 in WNW 19.6 mph 19.6 mph 68 % 0.00 in 0.0 W/m2 CLR
01:15 55.1 °F 44.7 °F 30.17 in WNW 18.4 mph 18.4 mph 68 % 0.00 in 0.0 W/m2 CLR
01:20 55.1 °F 44.7 °F 30.17 in WNW 20.0 mph 20.0 mph 68 % 0.00 in 0.0 W/m2 CLR
01:25 55.3 °F 44.5 °F 30.17 in WNW 20.7 mph 20.7 mph 67 % 0.00 in 0.0 W/m2 CLR
01:30 55.2 °F 44.4 °F 30.17 in WNW 20.7 mph 20.7 mph 67 % 0.00 in 0.0 W/m2 CLR
01:35 55.0 °F 44.2 °F 30.17 in WNW 19.6 mph 19.6 mph 67 % 0.00 in 0.0 W/m2 CLR
01:40 54.7 °F 44.3 °F 30.17 in WNW 19.6 mph 19.6 mph 68 % 0.00 in 0.0 W/m2 CLR
01:45 54.6 °F 44.2 °F 30.17 in WNW 21.0 mph 21.0 mph 68 % 0.00 in 0.0 W/m2 CLR
01:50 54.9 °F 44.1 °F 30.17 in WNW 19.6 mph 19.6 mph 67 % 0.00 in 0.0 W/m2 CLR
01:55 55.0 °F 44.2 °F 30.17 in WNW 19.6 mph 19.6 mph 67 % 0.00 in 0.0 W/m2 CLR
02:00 55.0 °F 44.2 °F 30.17 in WNW 17.3 mph 17.3 mph 67 % 0.00 in 0.0 W/m2 CLR
02:05 54.8 °F 44.0 °F 30.17 in WNW 17.3 mph 17.3 mph 67 % 0.00 in 0.0 W/m2 CLR
02:10 54.9 °F 44.1 °F 30.17 in WNW 19.6 mph 19.6 mph 67 % 0.00 in 0.0 W/m2 CLR
02:15 55.0 °F 43.8 °F 30.17 in WNW 23.0 mph 23.0 mph 66 % 0.00 in 0.0 W/m2 CLR
02:20 55.1 °F 43.9 °F 30.17 in WNW 26.5 mph 26.5 mph 66 % 0.00 in 0.0 W/m2 CLR
02:25 55.1 °F 43.5 °F 30.17 in WNW 20.7 mph 20.7 mph 65 % 0.00 in 0.0 W/m2 CLR
02:30 55.0 °F 43.8 °F 30.17 in WNW 24.2 mph 24.2 mph 66 % 0.00 in 0.0 W/m2 CLR
02:35 54.8 °F 43.7 °F 30.17 in WNW 22.0 mph 22.0 mph 66 % 0.00 in 0.0 W/m2 CLR
02:40 54.9 °F 43.7 °F 30.17 in WNW 18.4 mph 18.4 mph 66 % 0.00 in 0.0 W/m2 CLR
02:45 55.1 °F 43.5 °F 30.17 in WNW 21.9 mph 21.9 mph 65 % 0.00 in 0.0 W/m2 CLR
02:50 55.3 °F 43.3 °F 30.17 in WNW 21.9 mph 21.9 mph 64 % 0.00 in 0.0 W/m2 CLR
02:55 54.9 °F 43.4 °F 30.17 in WNW 18.4 mph 18.4 mph 65 % 0.00 in 0.0 W/m2 CLR
03:00 54.8 °F 43.3 °F 30.17 in WNW 16.1 mph 16.1 mph 65 % 0.00 in 0.0 W/m2 CLR
03:05 54.7 °F 43.2 °F 30.17 in WNW 19.0 mph 19.0 mph 65 % 0.00 in 0.0 W/m2 CLR
03:10 54.6 °F 43.5 °F 30.17 in NW 17.3 mph 17.3 mph 66 % 0.00 in 0.0 W/m2 CLR
03:15 54.6 °F 43.1 °F 30.17 in WNW 10.0 mph 10.0 mph 65 % 0.00 in 0.0 W/m2 CLR
03:21 54.5 °F 43.0 °F 30.17 in WNW 12.0 mph 12.0 mph 65 % 0.00 in 0.0 W/m2 CLR
03:26 54.3 °F 43.2 °F 30.17 in WNW 13.8 mph 13.8 mph 66 % 0.00 in 0.0 W/m2 CLR
03:31 54.0 °F 42.9 °F 30.16 in WNW 15.0 mph 15.0 mph 66 % 0.00 in 0.0 W/m2 CLR
03:36 53.8 °F 42.7 °F 30.16 in WNW 17.3 mph 17.3 mph 66 % 0.00 in 0.0 W/m2 CLR
03:41 53.9 °F 42.8 °F 30.15 in WNW 19.6 mph 19.6 mph 66 % 0.00 in 0.0 W/m2 CLR
03:46 53.9 °F 42.8 °F 30.15 in WNW 18.0 mph 18.0 mph 66 % 0.00 in 0.0 W/m2 CLR
03:51 54.0 °F 42.9 °F 30.15 in WNW 17.3 mph 17.3 mph 66 % 0.00 in 0.0 W/m2 CLR
03:56 54.2 °F 42.7 °F 30.15 in WNW 19.6 mph 19.6 mph 65 % 0.00 in 0.0 W/m2 CLR
04:01 54.1 °F 42.6 °F 30.15 in WNW 15.0 mph 15.0 mph 65 % 0.00 in 0.0 W/m2 CLR
04:06 54.2 °F 42.7 °F 30.15 in West 12.7 mph 12.7 mph 65 % 0.00 in 0.0 W/m2 CLR
04:11 54.1 °F 42.6 °F 30.15 in West 15.0 mph 15.0 mph 65 % 0.00 in 0.0 W/m2 CLR
04:16 54.1 °F 42.6 °F 30.15 in West 12.7 mph 12.7 mph 65 % 0.00 in 0.0 W/m2 CLR
04:21 54.0 °F 42.5 °F 30.15 in West 13.0 mph 13.0 mph 65 % 0.00 in 0.0 W/m2 CLR
04:26 53.9 °F 42.4 °F 30.15 in West 10.4 mph 10.4 mph 65 % 0.00 in 0.0 W/m2 CLR
04:31 53.9 °F 42.4 °F 30.16 in Calm     65 % 0.00 in 0.0 W/m2 CLR
04:36 53.6 °F 42.5 °F 30.16 in Calm     66 % 0.00 in 0.0 W/m2 CLR
04:41 53.4 °F 42.3 °F 30.16 in West 2.3 mph 2.3 mph 66 % 0.00 in 0.0 W/m2 CLR
04:46 53.2 °F 42.5 °F 30.16 in Calm     67 % 0.00 in 0.0 W/m2 CLR
04:51 53.0 °F 42.3 °F 30.15 in Calm     67 % 0.00 in 0.0 W/m2 CLR
04:56 52.9 °F 42.2 °F 30.15 in SW 1.2 mph 1.2 mph 67 % 0.00 in 0.0 W/m2 CLR
05:01 52.8 °F 42.1 °F 30.15 in Calm     67 % 0.00 in 0.0 W/m2 CLR
05:06 52.4 °F 42.1 °F 30.16 in Calm     68 % 0.00 in 0.0 W/m2 CLR
05:11 52.2 °F 42.3 °F 30.16 in Calm     69 % 0.00 in 0.0 W/m2 CLR
05:16 51.9 °F 42.0 °F 30.16 in Calm     69 % 0.00 in 0.0 W/m2 CLR
05:21 51.7 °F 42.2 °F 30.16 in Calm     70 % 0.00 in 0.0 W/m2 CLR
05:26 51.4 °F 41.9 °F 30.16 in Calm     70 % 0.00 in 0.0 W/m2 CLR
05:31 51.5 °F 42.0 °F 30.16 in Calm     70 % 0.00 in 0.0 W/m2 CLR
05:36 51.6 °F 42.1 °F 30.16 in Calm     70 % 0.00 in 0.0 W/m2 CLR
05:41 51.6 °F 42.1 °F 30.16 in Calm     70 % 0.00 in 0.0 W/m2 CLR
05:46 51.6 °F 42.1 °F 30.16 in Calm     70 % 0.00 in 0.0 W/m2 CLR
05:51 51.5 °F 42.0 °F 30.15 in Calm     70 % 0.00 in 0.0 W/m2 CLR
05:56 51.4 °F 41.9 °F 30.16 in WNW 2.3 mph   70 % 0.00 in 0.0 W/m2 CLR
05:57 51.4 °F 41.9 °F 30.15 in Calm     70 % 0.00 in 0.0 W/m2 CLR
06:02 51.3 °F 42.2 °F 30.16 in WNW 2.0 mph 2.0 mph 71 % 0.00 in 0.0 W/m2 CLR
06:07 51.3 °F 42.2 °F 30.16 in NW 2.3 mph 2.3 mph 71 % 0.00 in 0.0 W/m2 CLR
06:12 51.2 °F 42.5 °F 30.15 in WNW 6.0 mph 6.0 mph 72 % 0.00 in 0.0 W/m2 CLR
06:17 51.4 °F 42.7 °F 30.15 in West 4.6 mph 4.6 mph 72 % 0.00 in 0.0 W/m2 CLR
06:22 51.5 °F 42.4 °F 30.15 in West 5.8 mph 5.8 mph 71 % 0.00 in 0.0 W/m2 CLR
06:27 51.5 °F 42.4 °F 30.15 in West 6.0 mph 6.0 mph 71 % 0.00 in 0.0 W/m2 CLR
06:32 51.5 °F 42.8 °F 30.15 in West 5.8 mph 5.8 mph 72 % 0.00 in 0.0 W/m2 CLR
06:37 51.5 °F 42.8 °F 30.15 in WNW 6.9 mph 6.9 mph 72 % 0.00 in 0.0 W/m2 CLR
06:38 51.5 °F 42.8 °F 30.15 in WNW 6.9 mph 6.9 mph 72 % 0.00 in 0.0 W/m2 CLR
06:43 51.5 °F 42.8 °F 30.15 in WNW 10.4 mph 10.4 mph 72 % 0.00 in 0.0 W/m2 CLR
06:48 51.6 °F 42.9 °F 30.15 in WNW 11.5 mph 11.5 mph 72 % 0.00 in 0.0 W/m2 CLR
06:53 51.7 °F 43.0 °F 30.15 in WNW 11.5 mph 11.5 mph 72 % 0.00 in 0.0 W/m2 CLR
06:58 51.9 °F 43.2 °F 30.15 in WNW 10.4 mph 10.4 mph 72 % 0.00 in 0.0 W/m2 CLR
07:03 52.0 °F 43.3 °F 30.15 in WNW 11.5 mph 11.5 mph 72 % 0.00 in 0.0 W/m2 CLR
07:08 52.4 °F 43.3 °F 30.15 in WNW 13.0 mph 13.0 mph 71 % 0.00 in 0.0 W/m2 CLR
07:13 52.6 °F 43.5 °F 30.15 in WNW 15.0 mph 15.0 mph 71 % 0.00 in 0.0 W/m2 CLR
07:18 52.8 °F 43.7 °F 30.15 in WNW 16.1 mph 16.1 mph 71 % 0.00 in 0.0 W/m2 CLR
07:23 53.0 °F 43.8 °F 30.15 in WNW 15.0 mph 15.0 mph 71 % 0.00 in 0.0 W/m2 CLR
07:28 53.1 °F 43.9 °F 30.15 in WNW 20.7 mph 20.7 mph 71 % 0.00 in 0.0 W/m2 CLR
07:33 53.3 °F 44.1 °F 30.15 in WNW 19.6 mph 19.6 mph 71 % 0.00 in 0.0 W/m2 CLR
07:38 53.5 °F 44.3 °F 30.15 in WNW 15.0 mph 15.0 mph 71 % 0.00 in 0.0 W/m2 CLR
07:43 53.4 °F 44.2 °F 30.16 in WNW 13.8 mph 13.8 mph 71 % 0.00 in 0.0 W/m2 CLR
07:48 53.3 °F 44.5 °F 30.16 in WNW 16.0 mph 16.0 mph 72 % 0.00 in 0.0 W/m2 CLR
07:53 53.3 °F 44.5 °F 30.16 in WNW 19.0 mph 19.0 mph 72 % 0.00 in 0.0 W/m2 CLR
07:58 53.3 °F 44.5 °F 30.16 in WNW 19.6 mph 19.6 mph 72 % 0.00 in 0.0 W/m2 CLR
08:03 53.2 °F 44.8 °F 30.16 in WNW 18.0 mph 18.0 mph 73 % 0.00 in 0.0 W/m2 OVC
08:08 53.2 °F 44.8 °F 30.16 in WNW 21.0 mph 21.0 mph 73 % 0.00 in 0.0 W/m2 OVC
08:13 53.2 °F 44.8 °F 30.16 in WNW 20.0 mph 20.0 mph 73 % 0.00 in 7.0 W/m2 BKN
08:18 53.2 °F 44.8 °F 30.16 in WNW 16.1 mph 16.1 mph 73 % 0.00 in 14.0 W/m2 BKN
08:23 53.1 °F 44.7 °F 30.16 in WNW 13.8 mph 13.8 mph 73 % 0.00 in 14.0 W/m2 BKN
08:28 53.1 °F 44.7 °F 30.16 in WNW 15.0 mph 15.0 mph 73 % 0.00 in 14.0 W/m2 BKN
08:33 52.9 °F 44.8 °F 30.16 in WNW 13.8 mph 13.8 mph 74 % 0.00 in 16.0 W/m2 BKN
08:38 52.6 °F 44.5 °F 30.16 in WNW 15.0 mph 15.0 mph 74 % 0.00 in 16.0 W/m2 BKN
08:43 52.3 °F 44.6 °F 30.16 in WNW 15.0 mph 15.0 mph 75 % 0.00 in 16.0 W/m2 BKN
08:48 52.2 °F 44.9 °F 30.16 in WNW 13.8 mph 13.8 mph 76 % 0.00 in 16.0 W/m2 BKN
08:53 52.2 °F 44.9 °F 30.15 in WNW 18.4 mph 18.4 mph 76 % 0.00 in 16.0 W/m2 BKN
08:58 52.2 °F 44.9 °F 30.15 in WNW 15.0 mph 15.0 mph 76 % 0.00 in 18.0 W/m2 BKN
09:03 52.1 °F 44.8 °F 30.15 in WNW 15.0 mph 15.0 mph 76 % 0.00 in 19.0 W/m2 BKN
09:08 52.0 °F 44.7 °F 30.16 in WNW 12.7 mph 12.7 mph 76 % 0.00 in 21.0 W/m2 BKN
09:13 52.2 °F 44.9 °F 30.16 in WNW 18.4 mph 18.4 mph 76 % 0.00 in 23.0 W/m2 BKN
09:18 52.4 °F 45.1 °F 30.16 in WNW 16.1 mph 16.1 mph 76 % 0.00 in 25.0 W/m2 BKN
09:23 52.6 °F 45.2 °F 30.15 in WNW 19.6 mph 19.6 mph 76 % 0.00 in 26.0 W/m2 BKN
09:28 52.9 °F 45.5 °F 30.15 in WNW 19.6 mph 19.6 mph 76 % 0.00 in 30.0 W/m2 BKN
09:33 53.2 °F 45.8 °F 30.16 in WNW 19.6 mph 19.6 mph 76 % 0.00 in 33.0 W/m2 BKN
09:38 53.8 °F 46.1 °F 30.16 in WNW 24.2 mph 24.2 mph 75 % 0.00 in 199.0 W/m2 SCT
09:43 54.6 °F 46.5 °F 30.16 in WNW 17.3 mph 17.3 mph 74 % 0.00 in 229.0 W/m2 CLR
09:48 54.9 °F 46.4 °F 30.15 in WNW 21.9 mph 21.9 mph 73 % 0.00 in 76.0 W/m2 CLR
09:53 54.7 °F 46.6 °F 30.15 in WNW 20.7 mph 20.7 mph 74 % 0.00 in 58.0 W/m2 FEW
09:58 54.5 °F 46.4 °F 30.16 in WNW 17.3 mph 17.3 mph 74 % 0.00 in 63.0 W/m2 SCT
10:03 54.7 °F 46.6 °F 30.16 in WNW 18.4 mph 18.4 mph 74 % 0.00 in 258.0 W/m2 FEW
10:08 55.2 °F 47.1 °F 30.16 in WNW 17.3 mph 17.3 mph 74 % 0.00 in 144.0 W/m2 CLR
10:13 55.6 °F 47.1 °F 30.16 in WNW 15.0 mph 15.0 mph 73 % 0.00 in 95.0 W/m2 CLR
10:18 55.5 °F 47.0 °F 30.16 in WNW 13.8 mph 13.8 mph 73 % 0.00 in 163.0 W/m2 CLR
10:23 55.9 °F 47.4 °F 30.16 in WNW 19.6 mph 19.6 mph 73 % 0.00 in 271.0 W/m2 CLR
10:28 56.5 °F 47.6 °F 30.16 in WNW 13.8 mph 13.8 mph 72 % 0.00 in 348.0 W/m2 CLR
10:33 57.0 °F 47.7 °F 30.16 in WNW 13.8 mph 13.8 mph 71 % 0.00 in 316.0 W/m2 CLR
10:38 57.3 °F 48.0 °F 30.15 in WNW 15.0 mph 15.0 mph 71 % 0.00 in 302.0 W/m2 CLR
10:43 57.8 °F 47.7 °F 30.15 in WNW 17.3 mph 17.3 mph 69 % 0.00 in 329.0 W/m2 CLR
10:48 57.9 °F 47.8 °F 30.15 in WNW 19.6 mph 19.6 mph 69 % 0.00 in 292.0 W/m2 CLR
10:53 57.8 °F 47.3 °F 30.14 in WNW 19.6 mph 19.6 mph 68 % 0.00 in 299.0 W/m2 CLR
10:58 57.9 °F 47.8 °F 30.14 in WNW 26.5 mph 26.5 mph 69 % 0.00 in 271.0 W/m2 CLR
11:03 57.9 °F 47.8 °F 30.14 in WNW 13.8 mph 13.8 mph 69 % 0.00 in 297.0 W/m2 CLR
11:08 58.2 °F 47.7 °F 30.14 in WNW 26.5 mph 26.5 mph 68 % 0.00 in 408.0 W/m2 CLR
11:13 58.5 °F 48.0 °F 30.14 in WNW 20.0 mph 20.0 mph 68 % 0.00 in 404.0 W/m2 CLR
11:18 58.8 °F 48.6 °F 30.13 in WNW 20.0 mph 20.0 mph 69 % 0.00 in 408.0 W/m2 CLR
11:23 58.8 °F 48.3 °F 30.13 in NW 29.0 mph 29.0 mph 68 % 0.00 in 462.0 W/m2 CLR
11:28 59.1 °F 48.1 °F 30.13 in NW 26.5 mph 26.5 mph 67 % 0.00 in 457.0 W/m2 CLR
11:33 59.3 °F 47.9 °F 30.13 in NW 31.1 mph 31.1 mph 66 % 0.00 in 443.0 W/m2 CLR
11:38 59.4 °F 48.8 °F 30.13 in NW 19.0 mph 19.0 mph 68 % 0.00 in 431.0 W/m2 CLR
11:43 59.5 °F 48.5 °F 30.13 in NW 26.5 mph 26.5 mph 67 % 0.00 in 278.0 W/m2 CLR
11:48 59.6 °F 48.2 °F 30.13 in NW 26.5 mph 26.5 mph 66 % 0.00 in 496.0 W/m2 CLR
11:53 59.9 °F 48.5 °F 30.13 in NW 24.2 mph 24.2 mph 66 % 0.00 in 329.0 W/m2 CLR
11:58 60.2 °F 48.8 °F 30.13 in NW 31.1 mph 31.1 mph 66 % 0.00 in 559.0 W/m2 CLR
12:03 60.4 °F 48.6 °F 30.13 in NW 25.3 mph 25.3 mph 65 % 0.00 in 570.0 W/m2 CLR
12:08 60.6 °F 48.8 °F 30.13 in NW 26.5 mph 26.5 mph 65 % 0.00 in 575.0 W/m2 CLR
12:13 60.6 °F 48.8 °F 30.13 in WNW 26.5 mph 26.5 mph 65 % 0.00 in 501.0 W/m2 CLR
12:18 60.5 °F 48.7 °F 30.13 in NW 27.6 mph 27.6 mph 65 % 0.00 in 513.0 W/m2 CLR
12:23 60.6 °F 48.8 °F 30.13 in NW 28.8 mph 28.8 mph 65 % 0.00 in 545.0 W/m2 CLR
12:28 60.6 °F 48.8 °F 30.13 in NW 26.5 mph 26.5 mph 65 % 0.00 in 545.0 W/m2 CLR
12:33 60.6 °F 48.8 °F 30.13 in NW 27.6 mph 27.6 mph 65 % 0.00 in 555.0 W/m2 CLR
12:38 60.8 °F 49.0 °F 30.13 in NW 31.1 mph 31.1 mph 65 % 0.00 in 557.0 W/m2 CLR
12:43 60.7 °F 49.3 °F 30.13 in NW 25.3 mph 25.3 mph 66 % 0.00 in 578.0 W/m2 CLR
12:49 60.9 °F 48.6 °F 30.13 in NW 32.2 mph 32.2 mph 64 % 0.00 in 615.0 W/m2 CLR
12:54 60.8 °F 48.5 °F 30.13 in NW 28.8 mph 28.8 mph 64 % 0.00 in 584.0 W/m2 CLR
12:59 60.9 °F 48.6 °F 30.13 in NW 27.6 mph 27.6 mph 64 % 0.00 in 554.0 W/m2 CLR
13:04 61.2 °F 48.5 °F 30.13 in NW 28.8 mph 28.8 mph 63 % 0.00 in 580.0 W/m2 CLR
13:09 61.1 °F 48.8 °F 30.13 in NW 25.3 mph 25.3 mph 64 % 0.00 in 587.0 W/m2 CLR
13:14 61.6 °F 48.9 °F 30.13 in NW 28.8 mph 28.8 mph 63 % 0.00 in 626.0 W/m2 CLR
13:19 61.2 °F 48.5 °F 30.13 in NW 28.0 mph 28.0 mph 63 % 0.00 in 494.0 W/m2 CLR
13:24 60.9 °F 48.6 °F 30.12 in NW 24.2 mph 24.2 mph 64 % 0.00 in 515.0 W/m2 CLR
13:29 60.9 °F 48.6 °F 30.12 in NW 26.5 mph 26.5 mph 64 % 0.00 in 568.0 W/m2 CLR
13:34 61.7 °F 49.4 °F 30.12 in NW 19.6 mph 19.6 mph 64 % 0.00 in 504.0 W/m2 CLR
13:39 61.5 °F 49.2 °F 30.12 in NW 20.7 mph 20.7 mph 64 % 0.00 in 585.0 W/m2 CLR
13:44 61.5 °F 49.2 °F 30.11 in NW 24.2 mph 24.2 mph 64 % 0.00 in 568.0 W/m2 CLR
13:49 61.6 °F 49.3 °F 30.11 in NW 26.5 mph 26.5 mph 64 % 0.00 in 575.0 W/m2 CLR
13:54 60.8 °F 48.1 °F 30.11 in NW 21.9 mph 21.9 mph 63 % 0.00 in 111.0 W/m2 CLR
13:59 60.8 °F 48.5 °F 30.11 in NW 23.0 mph 23.0 mph 64 % 0.00 in 111.0 W/m2 CLR
14:04 60.6 °F 48.4 °F 30.11 in NW 19.6 mph 19.6 mph 64 % 0.00 in 146.0 W/m2 CLR
14:09 60.3 °F 48.5 °F 30.11 in NW 20.0 mph 20.0 mph 65 % 0.00 in 220.0 W/m2 CLR
14:14 60.1 °F 48.3 °F 30.10 in NW 19.0 mph 19.0 mph 65 % 0.00 in 149.0 W/m2 CLR
14:19 59.8 °F 48.4 °F 30.10 in NW 24.2 mph 24.2 mph 66 % 0.00 in 165.0 W/m2 CLR
14:24 59.6 °F 48.2 °F 30.10 in NNW 15.0 mph 15.0 mph 66 % 0.00 in 192.0 W/m2 CLR
14:29 59.7 °F 48.7 °F 30.10 in NNW 19.6 mph 19.6 mph 67 % 0.00 in 234.0 W/m2 CLR
14:34 59.7 °F 48.3 °F 30.10 in NNW 20.7 mph 20.7 mph 66 % 0.00 in 209.0 W/m2 CLR
14:39 59.6 °F 48.2 °F 30.09 in NW 14.0 mph 14.5 mph 66 % 0.00 in 192.0 W/m2 CLR
14:44 59.6 °F 48.6 °F 30.09 in NNW 12.7 mph 12.7 mph 67 % 0.00 in 202.0 W/m2 CLR
14:49 59.6 °F 48.2 °F 30.09 in NNW 17.3 mph 17.3 mph 66 % 0.00 in 209.0 W/m2 CLR
14:55 59.5 °F 48.1 °F 30.09 in NNW 19.6 mph 19.6 mph 66 % 0.00 in 200.0 W/m2 CLR
15:00 59.4 °F 47.6 °F 30.09 in NW 16.1 mph 16.1 mph 65 % 0.00 in 197.0 W/m2 CLR
15:05 59.3 °F 47.9 °F 30.09 in NNW 15.0 mph 15.0 mph 66 % 0.00 in 200.0 W/m2 CLR
15:10 59.3 °F 47.9 °F 30.08 in NNW 13.8 mph 13.8 mph 66 % 0.00 in 185.0 W/m2 CLR
15:15 59.3 °F 48.3 °F 30.09 in NW 13.8 mph 13.8 mph 67 % 0.00 in 179.0 W/m2 CLR
15:20 59.1 °F 47.7 °F 30.09 in NW 17.3 mph 17.3 mph 66 % 0.00 in 186.0 W/m2 CLR
15:25 58.9 °F 48.0 °F 30.09 in NNW 15.0 mph 15.0 mph 67 % 0.00 in 183.0 W/m2 CLR
15:30 58.9 °F 48.0 °F 30.09 in NW 15.0 mph 15.0 mph 67 % 0.00 in 171.0 W/m2 CLR
15:35 58.8 °F 47.9 °F 30.08 in NW 11.0 mph 11.0 mph 67 % 0.00 in 162.0 W/m2 CLR
15:40 58.9 °F 48.0 °F 30.08 in NW 8.1 mph 8.1 mph 67 % 0.00 in 151.0 W/m2 CLR
15:45 58.8 °F 47.5 °F 30.09 in NW 18.4 mph 18.4 mph 66 % 0.00 in 137.0 W/m2 CLR
15:50 58.6 °F 47.7 °F 30.09 in NW 15.0 mph 15.0 mph 67 % 0.00 in 116.0 W/m2 CLR
15:55 58.5 °F 48.0 °F 30.09 in NW 12.7 mph 12.7 mph 68 % 0.00 in 116.0 W/m2 CLR
16:00 58.2 °F 47.7 °F 30.09 in NW 16.1 mph 16.1 mph 68 % 0.00 in 107.0 W/m2 CLR
16:05 57.9 °F 47.4 °F 30.09 in NW 17.3 mph 17.3 mph 68 % 0.00 in 95.0 W/m2 CLR
16:10 57.7 °F 47.6 °F 30.09 in NW 17.3 mph 17.3 mph 69 % 0.00 in 93.0 W/m2 CLR
16:15 57.6 °F 47.5 °F 30.09 in NW 11.5 mph 11.5 mph 69 % 0.00 in 97.0 W/m2 CLR
16:20 57.5 °F 47.8 °F 30.09 in NW 12.7 mph 12.7 mph 70 % 0.00 in 93.0 W/m2 CLR
16:25 57.4 °F 47.7 °F 30.08 in NW 11.5 mph 11.5 mph 70 % 0.00 in 88.0 W/m2 CLR
16:30 57.4 °F 47.7 °F 30.09 in NW 15.0 mph 15.0 mph 70 % 0.00 in 74.0 W/m2 CLR
16:35 57.4 °F 47.7 °F 30.08 in NW 12.7 mph 12.7 mph 70 % 0.00 in 62.0 W/m2 FEW
16:40 57.3 °F 47.6 °F 30.08 in NW 9.2 mph 9.2 mph 70 % 0.00 in 58.0 W/m2 FEW
16:45 57.1 °F 47.4 °F 30.08 in NW 11.5 mph 11.5 mph 70 % 0.00 in 56.0 W/m2 SCT
16:50 57.0 °F 47.3 °F 30.08 in NW 11.5 mph 11.5 mph 70 % 0.00 in 63.0 W/m2 SCT
16:55 56.8 °F 47.1 °F 30.08 in NW 11.5 mph 11.5 mph 70 % 0.00 in 54.0 W/m2 SCT
17:00 56.6 °F 46.9 °F 30.09 in NW 11.5 mph 11.5 mph 70 % 0.00 in 53.0 W/m2 SCT
17:05 56.5 °F 47.2 °F 30.08 in NW 10.4 mph 10.4 mph 71 % 0.00 in 44.0 W/m2 SCT
17:10 56.4 °F 47.1 °F 30.09 in NW 13.8 mph 13.8 mph 71 % 0.00 in 33.0 W/m2 BKN
17:15 56.2 °F 46.9 °F 30.09 in NW 13.8 mph 13.8 mph 71 % 0.00 in 28.0 W/m2 BKN
17:20 56.1 °F 46.8 °F 30.09 in NW 15.0 mph 15.0 mph 71 % 0.00 in 23.0 W/m2 BKN
17:25 55.9 °F 46.6 °F 30.10 in NW 13.8 mph 13.8 mph 71 % 0.00 in 23.0 W/m2 BKN
17:30 55.7 °F 46.8 °F 30.09 in NW 11.0 mph 11.0 mph 72 % 0.00 in 19.0 W/m2 BKN
17:35 55.4 °F 47.2 °F 30.10 in NW 13.0 mph 13.0 mph 74 % 0.00 in 19.0 W/m2 BKN
17:39 55.1 °F 47.3 °F 30.10 in NW 16.0 mph 16.0 mph 75 % 0.00 in 19.0 W/m2 BKN
17:44 54.8 °F 47.4 °F 30.11 in NW 11.5 mph 11.5 mph 76 % 0.00 in 16.0 W/m2 BKN
17:49 54.4 °F 47.3 °F 30.11 in NW 17.3 mph 17.3 mph 77 % 0.01 in 16.0 W/m2 RA
17:54 54.2 °F 47.1 °F 30.11 in NW 15.0 mph 15.0 mph 77 % 0.01 in 16.0 W/m2 BKN
17:59 54.1 °F 47.4 °F 30.11 in NW 11.5 mph 11.5 mph 78 % 0.01 in 16.0 W/m2 BKN
18:04 53.8 °F 47.4 °F 30.11 in NW 17.3 mph 17.3 mph 79 % 0.01 in 12.0 W/m2 BKN
18:09 53.7 °F 47.3 °F 30.11 in NW 13.8 mph 13.8 mph 79 % 0.01 in 0.0 W/m2 OVC
18:14 53.4 °F 47.4 °F 30.12 in NW 12.7 mph 12.7 mph 80 % 0.01 in 0.0 W/m2 OVC
18:19 53.1 °F 47.4 °F 30.12 in NW 10.4 mph 10.4 mph 81 % 0.01 in 0.0 W/m2 OVC
18:24 52.7 °F 47.7 °F 30.13 in WNW 8.1 mph 8.1 mph 83 % 0.02 in 0.0 W/m2 RA
18:29 52.4 °F 47.7 °F 30.13 in NW 19.6 mph 19.6 mph 84 % 0.03 in 0.0 W/m2 RA
18:34 51.9 °F 47.8 °F 30.13 in NW 15.0 mph 15.0 mph 86 % 0.05 in 0.0 W/m2 RA
18:39 51.6 °F 47.5 °F 30.13 in WNW 17.3 mph 17.3 mph 86 % 0.06 in 0.0 W/m2 RA
18:44 51.4 °F 47.7 °F 30.13 in WNW 11.5 mph 11.5 mph 87 % 0.06 in 0.0 W/m2 RA
18:49 51.2 °F 47.5 °F 30.13 in WNW 11.5 mph 11.5 mph 87 % 0.06 in 0.0 W/m2 CLR
18:54 51.1 °F 47.4 °F 30.12 in West 12.0 mph 12.0 mph 87 % 0.06 in 0.0 W/m2 CLR
18:59 51.1 °F 47.1 °F 30.12 in West 14.0 mph 14.0 mph 86 % 0.06 in 0.0 W/m2 CLR
19:04 51.1 °F 47.1 °F 30.13 in West 12.7 mph 12.7 mph 86 % 0.06 in 0.0 W/m2 RA
19:09 50.8 °F 46.8 °F 30.13 in West 15.0 mph 15.0 mph 86 % 0.06 in 0.0 W/m2
19:14 50.6 °F 46.9 °F 30.13 in West 16.1 mph 16.1 mph 87 % 0.08 in 0.0 W/m2 RA
19:19 50.5 °F 46.8 °F 30.13 in West 11.5 mph 11.5 mph 87 % 0.08 in 0.0 W/m2 RA
19:24 50.3 °F 46.6 °F 30.13 in West 12.7 mph 12.7 mph 87 % 0.07 in 0.0 W/m2
19:29 50.2 °F 46.8 °F 30.13 in West 11.0 mph 11.0 mph 88 % 0.06 in 0.0 W/m2 CLR
19:34 50.1 °F 46.7 °F 30.13 in WSW 11.5 mph 11.5 mph 88 % 0.05 in 0.0 W/m2 CLR
19:39 50.2 °F 46.8 °F 30.13 in WSW 10.4 mph 10.4 mph 88 % 0.04 in 0.0 W/m2 CLR
19:44 50.1 °F 46.7 °F 30.13 in West 9.2 mph 9.2 mph 88 % 0.03 in 0.0 W/m2 CLR
19:49 50.0 °F 46.6 °F 30.13 in WSW 9.2 mph 9.2 mph 88 % 0.03 in 0.0 W/m2 CLR
19:54 50.0 °F 46.6 °F 30.13 in WSW 10.4 mph 10.4 mph 88 % 0.03 in 0.0 W/m2 CLR
19:59 49.9 °F 46.5 °F 30.13 in West 11.5 mph 11.5 mph 88 % 0.03 in 0.0 W/m2 CLR
20:04 50.0 °F 46.6 °F 30.13 in West 11.5 mph 11.5 mph 88 % 0.02 in 0.0 W/m2 CLR
20:09 50.0 °F 46.6 °F 30.13 in West 11.5 mph 11.5 mph 88 % 0.02 in 0.0 W/m2 CLR
20:14 50.1 °F 46.4 °F 30.13 in West 11.5 mph 11.5 mph 87 % 0.01 in 0.0 W/m2 CLR
20:19 50.2 °F 46.5 °F 30.13 in West 13.8 mph 13.8 mph 87 % 0.00 in 0.0 W/m2 CLR
20:24 50.3 °F 46.3 °F 30.12 in West 15.0 mph 15.0 mph 86 % 0.00 in 0.0 W/m2 CLR
20:29 50.4 °F 46.4 °F 30.12 in West 16.1 mph 16.1 mph 86 % 0.00 in 0.0 W/m2 CLR
20:34 50.4 °F 46.7 °F 30.11 in West 16.1 mph 16.1 mph 87 % 0.00 in 0.0 W/m2 CLR
20:39 50.4 °F 46.4 °F 30.11 in West 19.6 mph 19.6 mph 86 % 0.00 in 0.0 W/m2 CLR
20:44 50.4 °F 46.7 °F 30.11 in WNW 17.3 mph 17.3 mph 87 % 0.00 in 0.0 W/m2 CLR
20:49 50.3 °F 46.6 °F 30.11 in WNW 13.8 mph 13.8 mph 87 % 0.00 in 0.0 W/m2 CLR
20:54 50.2 °F 46.5 °F 30.11 in WNW 19.0 mph 19.0 mph 87 % 0.00 in 0.0 W/m2 CLR
20:59 50.3 °F 46.3 °F 30.10 in WNW 13.0 mph 13.0 mph 86 % 0.00 in 0.0 W/m2 CLR
21:04 50.2 °F 46.2 °F 30.11 in WNW 15.0 mph 15.0 mph 86 % 0.00 in 0.0 W/m2 CLR
21:05 50.3 °F 46.3 °F 30.11 in WNW 19.6 mph 19.6 mph 86 % 0.00 in 0.0 W/m2 CLR
21:10 50.3 °F 46.3 °F 30.11 in WNW 18.4 mph 18.4 mph 86 % 0.00 in 0.0 W/m2 CLR
21:15 50.1 °F 46.1 °F 30.11 in WNW 25.3 mph 25.3 mph 86 % 0.00 in 0.0 W/m2 CLR
21:20 50.0 °F 45.7 °F 30.11 in WNW 15.0 mph 15.0 mph 85 % 0.00 in 0.0 W/m2 CLR
21:25 49.9 °F 45.3 °F 30.11 in WNW 19.0 mph 19.0 mph 84 % 0.00 in 0.0 W/m2 CLR
21:30 49.9 °F 45.3 °F 30.11 in WNW 19.6 mph 19.6 mph 84 % 0.00 in 0.0 W/m2 CLR
21:35 49.7 °F 44.7 °F 30.11 in WNW 13.8 mph 13.8 mph 83 % 0.00 in 0.0 W/m2 CLR
21:40 49.4 °F 44.5 °F 30.11 in WNW 13.8 mph 13.8 mph 83 % 0.00 in 0.0 W/m2 CLR
21:45 49.3 °F 44.4 °F 30.11 in WNW 15.0 mph 15.0 mph 83 % 0.00 in 0.0 W/m2 CLR
21:50 49.3 °F 44.0 °F 30.12 in NW 20.7 mph 20.7 mph 82 % 0.00 in 0.0 W/m2 CLR
21:55 49.3 °F 44.0 °F 30.11 in NW 17.3 mph 17.3 mph 82 % 0.00 in 0.0 W/m2 CLR
22:01 49.1 °F 43.5 °F 30.12 in WNW 21.0 mph 21.0 mph 81 % 0.00 in 0.0 W/m2 CLR
22:06 49.0 °F 43.4 °F 30.11 in NW 20.7 mph 20.7 mph 81 % 0.00 in 0.0 W/m2 CLR
22:11 49.1 °F 43.5 °F 30.12 in NW 23.0 mph 23.0 mph 81 % 0.00 in 0.0 W/m2 CLR
22:16 49.0 °F 43.4 °F 30.12 in NW 19.6 mph 19.6 mph 81 % 0.00 in 0.0 W/m2 CLR
22:21 48.9 °F 43.3 °F 30.12 in NW 19.6 mph 19.6 mph 81 % 0.00 in 0.0 W/m2 CLR
22:26 48.9 °F 43.0 °F 30.12 in WNW 20.7 mph 20.7 mph 80 % 0.00 in 0.0 W/m2 CLR
22:31 49.0 °F 43.1 °F 30.13 in WNW 17.3 mph 17.3 mph 80 % 0.00 in 0.0 W/m2 CLR
22:36 49.0 °F 43.1 °F 30.12 in NW 19.6 mph 19.6 mph 80 % 0.00 in 0.0 W/m2 CLR
22:41 49.0 °F 43.1 °F 30.13 in NW 26.5 mph 26.5 mph 80 % 0.00 in 0.0 W/m2 CLR
22:46 48.8 °F 43.2 °F 30.13 in WNW 19.6 mph 19.6 mph 81 % 0.00 in 0.0 W/m2 CLR
22:51 48.4 °F 43.2 °F 30.13 in WNW 20.7 mph 20.7 mph 82 % 0.00 in 0.0 W/m2 CLR
22:56 48.3 °F 43.1 °F 30.13 in WNW 17.3 mph 17.3 mph 82 % 0.00 in 0.0 W/m2 CLR
23:01 48.2 °F 43.0 °F 30.13 in WNW 19.6 mph 19.6 mph 82 % 0.00 in 0.0 W/m2 CLR
23:06 48.3 °F 42.7 °F 30.13 in WNW 23.0 mph 23.0 mph 81 % 0.00 in 0.0 W/m2 CLR
23:11 48.1 °F 42.9 °F 30.14 in WNW 19.6 mph 19.6 mph 82 % 0.00 in 0.0 W/m2 CLR
23:16 47.8 °F 42.9 °F 30.15 in WNW 20.7 mph 20.7 mph 83 % 0.00 in 0.0 W/m2 CLR
23:21 47.7 °F 42.8 °F 30.14 in WNW 19.6 mph 19.6 mph 83 % 0.00 in 0.0 W/m2 CLR
23:26 47.7 °F 42.8 °F 30.14 in WNW 19.6 mph 19.6 mph 83 % 0.00 in 0.0 W/m2 CLR
23:31 47.7 °F 42.8 °F 30.14 in WNW 23.0 mph 23.0 mph 83 % 0.00 in 0.0 W/m2 CLR
23:36 47.5 °F 42.9 °F 30.14 in WNW 20.7 mph 20.7 mph 84 % 0.00 in 0.0 W/m2 CLR
23:41 47.4 °F 42.5 °F 30.14 in WNW 19.6 mph 19.6 mph 83 % 0.00 in 0.0 W/m2 CLR
23:46 47.3 °F 42.4 °F 30.14 in WNW 32.2 mph 32.2 mph 83 % 0.00 in 0.0 W/m2 CLR
23:51 47.1 °F 41.9 °F 30.14 in WNW 26.5 mph 26.5 mph 82 % 0.00 in 0.0 W/m2 CLR
23:56 46.9 °F 41.7 °F 30.14 in NW 18.4 mph 18.4 mph 82 % 0.00 in 0.0 W/m2 CLR
Lo Temps de Massalio
Compliments of Weather Underground - 1.25 mb